sensor_id;sensor_type;location;lat;lon;timestamp;pressure;altitude;pressure_sealevel;temperature;humidity
17254;BME280;32542;52.832;13.816;2024-03-02T00:02:12;100564.13;;;20.68;50.08
17254;BME280;32542;52.832;13.816;2024-03-02T00:05:16;100565.09;;;20.67;50.18
17254;BME280;32542;52.832;13.816;2024-03-02T00:08:24;100567.75;;;20.67;50.13
17254;BME280;32542;52.832;13.816;2024-03-02T00:11:28;100561.63;;;20.65;50.17
17254;BME280;32542;52.832;13.816;2024-03-02T00:14:31;100558.97;;;20.65;50.02
17254;BME280;32542;52.832;13.816;2024-03-02T00:17:34;100561.63;;;20.65;50.21
17254;BME280;32542;52.832;13.816;2024-03-02T00:20:37;100558.09;;;20.65;50.11
17254;BME280;32542;52.832;13.816;2024-03-02T00:23:41;100553.72;;;20.64;50.14
17254;BME280;32542;52.832;13.816;2024-03-02T00:26:44;100556.47;;;20.62;50.15
17254;BME280;32542;52.832;13.816;2024-03-02T00:29:47;100550.28;;;20.62;50.18
17254;BME280;32542;52.832;13.816;2024-03-02T00:32:50;100545.91;;;20.61;50.02
17254;BME280;32542;52.832;13.816;2024-03-02T00:35:55;100546.81;;;20.60;50.15
17254;BME280;32542;52.832;13.816;2024-03-02T00:38:59;100544.25;;;20.58;50.13
17254;BME280;32542;52.832;13.816;2024-03-02T00:42:02;100539.81;;;20.59;50.15
17254;BME280;32542;52.832;13.816;2024-03-02T00:45:07;100542.50;;;20.57;50.17
17254;BME280;32542;52.832;13.816;2024-03-02T00:48:10;100542.50;;;20.57;50.14
17254;BME280;32542;52.832;13.816;2024-03-02T00:51:13;100543.47;;;20.56;50.12
17254;BME280;32542;52.832;13.816;2024-03-02T00:54:21;100538.06;;;20.58;49.87
17254;BME280;32542;52.832;13.816;2024-03-02T00:57:25;100533.75;;;20.55;49.87
17254;BME280;32542;52.832;13.816;2024-03-02T01:00:29;100530.16;;;20.56;49.81
17254;BME280;32542;52.832;13.816;2024-03-02T01:03:32;100530.16;;;20.56;49.91
17254;BME280;32542;52.832;13.816;2024-03-02T01:06:35;100531.09;;;20.55;49.88
17254;BME280;32542;52.832;13.816;2024-03-02T01:09:39;100522.28;;;20.55;49.91
17254;BME280;32542;52.832;13.816;2024-03-02T01:12:43;100520.53;;;20.54;49.99
17254;BME280;32542;52.832;13.816;2024-03-02T01:15:46;100518.75;;;20.54;49.84
17254;BME280;32542;52.832;13.816;2024-03-02T01:18:49;100525.88;;;20.54;49.98
17254;BME280;32542;52.832;13.816;2024-03-02T01:21:52;100520.53;;;20.54;49.94
17254;BME280;32542;52.832;13.816;2024-03-02T01:24:56;100525.00;;;20.53;49.82
17254;BME280;32542;52.832;13.816;2024-03-02T01:27:59;100512.66;;;20.52;49.91
17254;BME280;32542;52.832;13.816;2024-03-02T01:31:02;100514.44;;;20.52;50.06
17254;BME280;32542;52.832;13.816;2024-03-02T01:34:05;100519.84;;;20.50;49.93
17254;BME280;32542;52.832;13.816;2024-03-02T01:37:08;100510.03;;;20.51;50.03
17254;BME280;32542;52.832;13.816;2024-03-02T01:40:13;100514.53;;;20.50;50.00
17254;BME280;32542;52.832;13.816;2024-03-02T01:43:16;100528.66;;;20.51;49.94
17254;BME280;32542;52.832;13.816;2024-03-02T01:46:19;100519.84;;;20.50;49.97
17254;BME280;32542;52.832;13.816;2024-03-02T01:49:21;100514.53;;;20.50;49.97
17254;BME280;32542;52.832;13.816;2024-03-02T01:52:24;100517.19;;;20.50;50.12
17254;BME280;32542;52.832;13.816;2024-03-02T01:55:29;100514.53;;;20.50;50.00
17254;BME280;32542;52.832;13.816;2024-03-02T01:58:32;100510.13;;;20.49;50.05
17254;BME280;32542;52.832;13.816;2024-03-02T02:01:35;100503.09;;;20.48;50.09
17254;BME280;32542;52.832;13.816;2024-03-02T02:04:38;100494.34;;;20.46;50.02
17254;BME280;32542;52.832;13.816;2024-03-02T02:07:41;100483.75;;;20.45;50.06
17254;BME280;32542;52.832;13.816;2024-03-02T02:10:45;100483.75;;;20.45;50.15
17254;BME280;32542;52.832;13.816;2024-03-02T02:13:48;100488.16;;;20.46;50.27
17254;BME280;32542;52.832;13.816;2024-03-02T02:16:51;100487.28;;;20.45;50.22
17254;BME280;32542;52.832;13.816;2024-03-02T02:19:55;100492.53;;;20.47;50.22
17254;BME280;32542;52.832;13.816;2024-03-02T02:23:00;100484.63;;;20.45;50.17
17254;BME280;32542;52.832;13.816;2024-03-02T02:26:03;100480.28;;;20.44;50.14
17254;BME280;32542;52.832;13.816;2024-03-02T02:29:06;100474.00;;;20.45;50.07
17254;BME280;32542;52.832;13.816;2024-03-02T02:32:09;100478.38;;;20.46;50.17
17254;BME280;32542;52.832;13.816;2024-03-02T02:35:12;100479.22;;;20.47;50.25
17254;BME280;32542;52.832;13.816;2024-03-02T02:38:16;100488.94;;;20.48;50.24
17254;BME280;32542;52.832;13.816;2024-03-02T02:41:21;100487.97;;;20.49;50.24
17254;BME280;32542;52.832;13.816;2024-03-02T02:44:24;100485.41;;;20.47;50.23
17254;BME280;32542;52.832;13.816;2024-03-02T02:47:27;100492.47;;;20.48;50.17
17254;BME280;32542;52.832;13.816;2024-03-02T02:50:30;100488.06;;;20.47;50.28
17254;BME280;32542;52.832;13.816;2024-03-02T02:53:35;100492.53;;;20.47;50.14
17254;BME280;32542;52.832;13.816;2024-03-02T02:56:41;100486.28;;;20.48;50.18
17254;BME280;32542;52.832;13.816;2024-03-02T02:59:44;100483.63;;;20.48;50.26
17254;BME280;32542;52.832;13.816;2024-03-02T03:02:48;100482.75;;;20.47;50.22
17254;BME280;32542;52.832;13.816;2024-03-02T03:05:52;100488.06;;;20.47;50.17
17254;BME280;32542;52.832;13.816;2024-03-02T03:08:56;100483.63;;;20.48;50.31
17254;BME280;32542;52.832;13.816;2024-03-02T03:11:59;100480.97;;;20.48;50.25
17254;BME280;32542;52.832;13.816;2024-03-02T03:15:03;100479.16;;;20.48;50.16
17254;BME280;32542;52.832;13.816;2024-03-02T03:18:08;100480.88;;;20.49;50.22
17254;BME280;32542;52.832;13.816;2024-03-02T03:21:12;100480.78;;;20.51;50.24
17254;BME280;32542;52.832;13.816;2024-03-02T03:24:16;100485.88;;;20.55;50.25
17254;BME280;32542;52.832;13.816;2024-03-02T03:27:19;100479.41;;;20.61;50.01
17254;BME280;32542;52.832;13.816;2024-03-02T03:30:22;100476.31;;;20.68;49.92
17254;BME280;32542;52.832;13.816;2024-03-02T03:33:25;100484.94;;;20.73;49.78
17254;BME280;32542;52.832;13.816;2024-03-02T03:36:28;100484.63;;;20.79;49.65
17254;BME280;32542;52.832;13.816;2024-03-02T03:39:33;100489.63;;;20.85;49.12
17254;BME280;32542;52.832;13.816;2024-03-02T03:42:37;100477.94;;;20.88;49.07
17254;BME280;32542;52.832;13.816;2024-03-02T03:45:40;100487.59;;;20.90;49.01
17254;BME280;32542;52.832;13.816;2024-03-02T03:48:43;100478.63;;;20.91;49.02
17254;BME280;32542;52.832;13.816;2024-03-02T03:51:46;100476.94;;;20.90;49.13
17254;BME280;32542;52.832;13.816;2024-03-02T03:54:51;100480.53;;;20.89;49.04
17254;BME280;32542;52.832;13.816;2024-03-02T03:57:54;100478.81;;;20.88;49.23
17254;BME280;32542;52.832;13.816;2024-03-02T04:00:57;100482.41;;;20.87;49.23
17254;BME280;32542;52.832;13.816;2024-03-02T04:04:00;100483.41;;;20.85;49.21
17254;BME280;32542;52.832;13.816;2024-03-02T04:07:03;100479.97;;;20.83;49.26
17254;BME280;32542;52.832;13.816;2024-03-02T04:10:09;100484.47;;;20.82;49.40
17254;BME280;32542;52.832;13.816;2024-03-02T04:13:13;100486.41;;;20.79;49.47
17254;BME280;32542;52.832;13.816;2024-03-02T04:16:16;100482.09;;;20.76;49.44
17254;BME280;32542;52.832;13.816;2024-03-02T04:19:19;100488.38;;;20.75;49.59
17254;BME280;32542;52.832;13.816;2024-03-02T04:22:22;100489.41;;;20.73;49.50
17254;BME280;32542;52.832;13.816;2024-03-02T04:25:27;100490.41;;;20.70;49.63
17254;BME280;32542;52.832;13.816;2024-03-02T04:28:30;100494.94;;;20.68;49.62
17254;BME280;32542;52.832;13.816;2024-03-02T04:31:33;100495.03;;;20.67;49.75
17254;BME280;32542;52.832;13.816;2024-03-02T04:34:36;100502.25;;;20.65;49.73
17254;BME280;32542;52.832;13.816;2024-03-02T04:37:39;100499.66;;;20.63;49.88
17254;BME280;32542;52.832;13.816;2024-03-02T04:40:43;100491.75;;;20.62;49.79
17254;BME280;32542;52.832;13.816;2024-03-02T04:43:46;100499.81;;;20.60;49.88
17254;BME280;32542;52.832;13.816;2024-03-02T04:46:49;100497.16;;;20.60;50.00
17254;BME280;32542;52.832;13.816;2024-03-02T04:49:52;100499.81;;;20.60;49.93
17254;BME280;32542;52.832;13.816;2024-03-02T04:52:55;100506.00;;;20.61;49.86
17254;BME280;32542;52.832;13.816;2024-03-02T04:55:59;100505.13;;;20.60;49.90
17254;BME280;32542;52.832;13.816;2024-03-02T04:59:20;100503.41;;;20.59;49.87
17254;BME280;32542;52.832;13.816;2024-03-02T05:02:23;100503.41;;;20.59;50.03
17254;BME280;32542;52.832;13.816;2024-03-02T05:05:25;100503.41;;;20.59;50.03
17254;BME280;32542;52.832;13.816;2024-03-02T05:08:28;100498.06;;;20.59;49.97
17254;BME280;32542;52.832;13.816;2024-03-02T05:11:33;100503.34;;;20.61;49.90
17254;BME280;32542;52.832;13.816;2024-03-02T05:15:00;100503.34;;;20.61;50.00
17254;BME280;32542;52.832;13.816;2024-03-02T05:18:04;100507.72;;;20.62;49.89
17254;BME280;32542;52.832;13.816;2024-03-02T05:21:07;100509.44;;;20.63;49.93
17254;BME280;32542;52.832;13.816;2024-03-02T05:24:09;100511.16;;;20.64;49.94
17254;BME280;32542;52.832;13.816;2024-03-02T05:27:14;100509.34;;;20.64;49.92
17254;BME280;32542;52.832;13.816;2024-03-02T05:30:16;100514.69;;;20.64;49.95
17254;BME280;32542;52.832;13.816;2024-03-02T05:33:19;100514.59;;;20.66;49.80
17254;BME280;32542;52.832;13.816;2024-03-02T05:36:24;100515.44;;;20.66;49.87
17254;BME280;32542;52.832;13.816;2024-03-02T05:39:27;100520.78;;;20.66;49.92
17254;BME280;32542;52.832;13.816;2024-03-02T05:42:31;100518.13;;;20.66;49.72
17254;BME280;32542;52.832;13.816;2024-03-02T05:45:34;100527.84;;;20.67;49.69
17254;BME280;32542;52.832;13.816;2024-03-02T05:48:38;100522.50;;;20.67;49.92
17254;BME280;32542;52.832;13.816;2024-03-02T05:51:41;100526.09;;;20.66;49.86
17254;BME280;32542;52.832;13.816;2024-03-02T05:54:44;100524.22;;;20.68;49.92
17254;BME280;32542;52.832;13.816;2024-03-02T05:57:48;100531.31;;;20.68;49.81
17254;BME280;32542;52.832;13.816;2024-03-02T06:01:04;100540.19;;;20.68;49.90
17254;BME280;32542;52.832;13.816;2024-03-02T06:04:07;100543.81;;;20.67;49.91
17254;BME280;32542;52.832;13.816;2024-03-02T06:07:10;100550.81;;;20.68;49.88
17254;BME280;32542;52.832;13.816;2024-03-02T06:10:13;100550.81;;;20.68;49.86
17254;BME280;32542;52.832;13.816;2024-03-02T06:13:17;100545.50;;;20.68;49.75
17254;BME280;32542;52.832;13.816;2024-03-02T06:16:20;100546.38;;;20.69;49.81
17254;BME280;32542;52.832;13.816;2024-03-02T06:19:23;100545.50;;;20.68;49.78
17254;BME280;32542;52.832;13.816;2024-03-02T06:22:26;100550.81;;;20.68;49.86
17254;BME280;32542;52.832;13.816;2024-03-02T06:25:29;100548.25;;;20.67;49.78
17254;BME280;32542;52.832;13.816;2024-03-02T06:28:33;100546.50;;;20.66;49.79
17254;BME280;32542;52.832;13.816;2024-03-02T06:31:36;100551.00;;;20.65;49.93
17254;BME280;32542;52.832;13.816;2024-03-02T06:34:39;100562.47;;;20.66;49.96
17254;BME280;32542;52.832;13.816;2024-03-02T06:37:42;100562.56;;;20.64;49.95
17254;BME280;32542;52.832;13.816;2024-03-02T06:40:45;100559.91;;;20.64;49.85
17254;BME280;32542;52.832;13.816;2024-03-02T06:43:49;100565.22;;;20.64;49.89
17254;BME280;32542;52.832;13.816;2024-03-02T06:46:56;100562.56;;;20.64;49.93
17254;BME280;32542;52.832;13.816;2024-03-02T06:49:58;100559.91;;;20.64;49.99
17254;BME280;32542;52.832;13.816;2024-03-02T06:53:01;100567.88;;;20.64;50.05
17254;BME280;32542;52.832;13.816;2024-03-02T06:56:06;100565.22;;;20.64;49.85
17254;BME280;32542;52.832;13.816;2024-03-02T06:59:10;100570.53;;;20.64;49.91
17254;BME280;32542;52.832;13.816;2024-03-02T07:02:14;100566.09;;;20.65;49.98
17254;BME280;32542;52.832;13.816;2024-03-02T07:05:17;100570.47;;;20.66;50.01
17254;BME280;32542;52.832;13.816;2024-03-02T07:08:20;100579.31;;;20.66;49.89
17254;BME280;32542;52.832;13.816;2024-03-02T07:11:22;100577.59;;;20.65;49.99
17254;BME280;32542;52.832;13.816;2024-03-02T07:14:27;100578.44;;;20.66;49.92
17254;BME280;32542;52.832;13.816;2024-03-02T07:17:51;100579.41;;;20.65;49.96
17254;BME280;32542;52.832;13.816;2024-03-02T07:20:54;100583.75;;;20.66;49.96
17254;BME280;32542;52.832;13.816;2024-03-02T07:23:59;100587.38;;;20.65;49.95
17254;BME280;32542;52.832;13.816;2024-03-02T07:27:04;100585.59;;;20.65;50.11
17254;BME280;32542;52.832;13.816;2024-03-02T07:30:10;100593.56;;;20.65;50.02
17254;BME280;32542;52.832;13.816;2024-03-02T07:33:17;100597.16;;;20.64;50.14
17254;BME280;32542;52.832;13.816;2024-03-02T07:36:23;100605.91;;;20.66;50.08
17254;BME280;32542;52.832;13.816;2024-03-02T07:39:26;100611.25;;;20.66;50.20
17254;BME280;32542;52.832;13.816;2024-03-02T07:42:29;100622.75;;;20.67;50.27
17254;BME280;32542;52.832;13.816;2024-03-02T07:45:33;100629.78;;;20.68;50.29
17254;BME280;32542;52.832;13.816;2024-03-02T07:48:37;100627.97;;;20.68;50.09
17254;BME280;32542;52.832;13.816;2024-03-02T07:51:40;100631.59;;;20.67;50.34
17254;BME280;32542;52.832;13.816;2024-03-02T07:54:43;100647.47;;;20.69;50.31
17254;BME280;32542;52.832;13.816;2024-03-02T07:57:46;100648.34;;;20.69;50.36
17254;BME280;32542;52.832;13.816;2024-03-02T08:00:50;100651.00;;;20.69;50.30
17254;BME280;32542;52.832;13.816;2024-03-02T08:03:56;100653.66;;;20.69;50.34
17254;BME280;32542;52.832;13.816;2024-03-02T08:06:59;100645.69;;;20.69;50.32
17254;BME280;32542;52.832;13.816;2024-03-02T08:10:03;100637.72;;;20.69;50.33
17254;BME280;32542;52.832;13.816;2024-03-02T08:13:06;100637.72;;;20.69;50.35
17254;BME280;32542;52.832;13.816;2024-03-02T08:16:10;100633.22;;;20.70;50.52
17254;BME280;32542;52.832;13.816;2024-03-02T08:19:13;100638.53;;;20.70;50.52
17254;BME280;32542;52.832;13.816;2024-03-02T08:22:16;100645.59;;;20.71;50.57
17254;BME280;32542;52.832;13.816;2024-03-02T08:25:19;100649.13;;;20.71;50.59
17254;BME280;32542;52.832;13.816;2024-03-02T08:28:22;100646.47;;;20.71;50.58
17254;BME280;32542;52.832;13.816;2024-03-02T08:31:26;100650.84;;;20.72;50.59
17254;BME280;32542;52.832;13.816;2024-03-02T08:34:29;100659.69;;;20.73;50.57
17254;BME280;32542;52.832;13.816;2024-03-02T08:37:32;100663.13;;;20.75;50.54
17254;BME280;32542;52.832;13.816;2024-03-02T08:40:35;100666.75;;;20.74;50.53
17254;BME280;32542;52.832;13.816;2024-03-02T08:43:38;100667.59;;;20.74;50.69
17254;BME280;32542;52.832;13.816;2024-03-02T08:46:43;100672.06;;;20.74;50.54
17254;BME280;32542;52.832;13.816;2024-03-02T08:49:46;100675.66;;;20.73;50.67
17254;BME280;32542;52.832;13.816;2024-03-02T08:52:49;100673.00;;;20.73;50.78
17254;BME280;32542;52.832;13.816;2024-03-02T08:55:52;100676.53;;;20.73;50.70
17254;BME280;32542;52.832;13.816;2024-03-02T08:58:58;100678.22;;;20.74;50.84
17254;BME280;32542;52.832;13.816;2024-03-02T09:02:03;100667.69;;;20.73;50.76
17254;BME280;32542;52.832;13.816;2024-03-02T09:05:08;100674.78;;;20.72;50.74
17254;BME280;32542;52.832;13.816;2024-03-02T09:08:11;100663.22;;;20.73;50.83
17254;BME280;32542;52.832;13.816;2024-03-02T09:11:14;100669.41;;;20.74;50.80
17254;BME280;32542;52.832;13.816;2024-03-02T09:14:16;100665.78;;;20.75;50.89
17254;BME280;32542;52.832;13.816;2024-03-02T09:17:47;100663.13;;;20.75;50.82
17254;BME280;32542;52.832;13.816;2024-03-02T09:20:50;100671.03;;;20.76;50.80
17254;BME280;32542;52.832;13.816;2024-03-02T09:23:53;100678.09;;;20.77;50.83
17254;BME280;32542;52.832;13.816;2024-03-02T09:26:56;100685.22;;;20.77;50.88
17254;BME280;32542;52.832;13.816;2024-03-02T09:29:59;100679.97;;;20.75;50.80
17254;BME280;32542;52.832;13.816;2024-03-02T09:33:04;100692.31;;;20.76;50.73
17254;BME280;32542;52.832;13.816;2024-03-02T09:36:17;100696.81;;;20.76;50.80
17254;BME280;32542;52.832;13.816;2024-03-02T09:39:20;100679.97;;;20.75;50.73
17254;BME280;32542;52.832;13.816;2024-03-02T09:42:24;100681.69;;;20.76;50.74
17254;BME280;32542;52.832;13.816;2024-03-02T09:45:27;100679.00;;;20.76;50.84
17254;BME280;32542;52.832;13.816;2024-03-02T09:48:31;100687.97;;;20.75;50.68
17254;BME280;32542;52.832;13.816;2024-03-02T09:51:35;100690.69;;;20.74;50.47
17254;BME280;32542;52.832;13.816;2024-03-02T09:54:38;100692.41;;;20.75;50.43
17254;BME280;32542;52.832;13.816;2024-03-02T09:57:41;100691.50;;;20.76;50.51
17254;BME280;32542;52.832;13.816;2024-03-02T10:00:44;100689.66;;;20.76;50.69
17254;BME280;32542;52.832;13.816;2024-03-02T10:03:48;100694.94;;;20.78;50.74
17254;BME280;32542;52.832;13.816;2024-03-02T10:07:09;100695.72;;;20.80;50.98
17254;BME280;32542;52.832;13.816;2024-03-02T10:10:14;100697.50;;;20.79;50.90
17254;BME280;32542;52.832;13.816;2024-03-02T10:13:17;100704.63;;;20.79;51.12
17254;BME280;32542;52.832;13.816;2024-03-02T10:16:20;100702.84;;;20.79;51.22
17254;BME280;32542;52.832;13.816;2024-03-02T10:19:24;100708.03;;;20.82;51.70
17254;BME280;32542;52.832;13.816;2024-03-02T10:22:28;100701.81;;;20.82;51.79
17254;BME280;32542;52.832;13.816;2024-03-02T10:25:32;100710.69;;;20.82;51.74
17254;BME280;32542;52.832;13.816;2024-03-02T10:28:46;100707.06;;;20.83;51.80
17254;BME280;32542;52.832;13.816;2024-03-02T10:31:49;100702.69;;;20.82;51.77
17254;BME280;32542;52.832;13.816;2024-03-02T10:34:55;100702.69;;;20.82;51.83
17254;BME280;32542;52.832;13.816;2024-03-02T10:37:59;100700.03;;;20.82;51.74
17254;BME280;32542;52.832;13.816;2024-03-02T10:41:03;100698.28;;;20.81;51.65
17254;BME280;32542;52.832;13.816;2024-03-02T10:44:06;100705.34;;;20.82;51.68
17254;BME280;32542;52.832;13.816;2024-03-02T10:47:12;100711.59;;;20.81;51.70
17254;BME280;32542;52.832;13.816;2024-03-02T10:50:17;100715.13;;;20.82;51.70
17254;BME280;32542;52.832;13.816;2024-03-02T10:53:20;100710.69;;;20.82;51.61
17254;BME280;32542;52.832;13.816;2024-03-02T10:56:28;100701.81;;;20.82;51.62
17254;BME280;32542;52.832;13.816;2024-03-02T10:59:33;100700.97;;;20.81;51.64
17254;BME280;32542;52.832;13.816;2024-03-02T11:02:38;100697.50;;;20.79;51.63
17254;BME280;32542;52.832;13.816;2024-03-02T11:05:44;100693.97;;;20.79;51.65
17254;BME280;32542;52.832;13.816;2024-03-02T11:08:48;100696.72;;;20.77;51.62
17254;BME280;32542;52.832;13.816;2024-03-02T11:12:02;100694.06;;;20.77;51.58
17254;BME280;32542;52.832;13.816;2024-03-02T11:15:10;100687.88;;;20.77;51.45
17254;BME280;32542;52.832;13.816;2024-03-02T11:18:13;100680.84;;;20.76;51.57
17254;BME280;32542;52.832;13.816;2024-03-02T11:21:20;100686.16;;;20.76;51.48
17254;BME280;32542;52.832;13.816;2024-03-02T11:24:34;100680.84;;;20.76;51.40
17254;BME280;32542;52.832;13.816;2024-03-02T11:28:04;100682.63;;;20.75;51.39
17254;BME280;32542;52.832;13.816;2024-03-02T11:31:08;100696.81;;;20.76;51.33
17254;BME280;32542;52.832;13.816;2024-03-02T11:34:17;100686.16;;;20.76;51.38
17254;BME280;32542;52.832;13.816;2024-03-02T11:37:22;100685.28;;;20.75;51.43
17254;BME280;32542;52.832;13.816;2024-03-02T11:40:27;100691.50;;;20.76;51.42
17254;BME280;32542;52.832;13.816;2024-03-02T11:43:31;100687.97;;;20.75;51.38
17254;BME280;32542;52.832;13.816;2024-03-02T11:46:35;100678.22;;;20.74;51.39
17254;BME280;32542;52.832;13.816;2024-03-02T11:49:38;100677.41;;;20.74;51.36
17254;BME280;32542;52.832;13.816;2024-03-02T11:52:43;100680.97;;;20.73;51.34
17254;BME280;32542;52.832;13.816;2024-03-02T11:55:49;100691.53;;;20.74;51.30
17254;BME280;32542;52.832;13.816;2024-03-02T11:58:53;100680.91;;;20.74;51.29
17254;BME280;32542;52.832;13.816;2024-03-02T12:01:57;100680.09;;;20.72;51.27
17254;BME280;32542;52.832;13.816;2024-03-02T12:05:03;100683.63;;;20.73;51.33
17254;BME280;32542;52.832;13.816;2024-03-02T12:08:08;100681.94;;;20.72;51.31
17254;BME280;32542;52.832;13.816;2024-03-02T12:11:13;100676.53;;;20.73;51.32
17254;BME280;32542;52.832;13.816;2024-03-02T12:14:18;100678.31;;;20.73;51.17
17254;BME280;32542;52.832;13.816;2024-03-02T12:17:21;100681.84;;;20.73;51.14
17254;BME280;32542;52.832;13.816;2024-03-02T12:20:25;100692.50;;;20.73;51.10
17254;BME280;32542;52.832;13.816;2024-03-02T12:23:30;100683.56;;;20.74;51.15
17254;BME280;32542;52.832;13.816;2024-03-02T12:26:33;100678.22;;;20.74;51.14
17254;BME280;32542;52.832;13.816;2024-03-02T12:29:36;100682.63;;;20.75;51.19
17254;BME280;32542;52.832;13.816;2024-03-02T12:32:40;100674.72;;;20.74;51.08
17254;BME280;32542;52.832;13.816;2024-03-02T12:35:42;100679.09;;;20.75;51.09
17254;BME280;32542;52.832;13.816;2024-03-02T12:38:47;100680.91;;;20.74;51.12
17254;BME280;32542;52.832;13.816;2024-03-02T12:41:50;100668.47;;;20.75;51.02
17254;BME280;32542;52.832;13.816;2024-03-02T12:44:55;100679.09;;;20.75;51.07
17254;BME280;32542;52.832;13.816;2024-03-02T12:47:59;100673.78;;;20.75;51.07
17254;BME280;32542;52.832;13.816;2024-03-02T12:51:03;100672.91;;;20.74;51.10
17254;BME280;32542;52.832;13.816;2024-03-02T12:54:07;100678.22;;;20.74;51.05
17254;BME280;32542;52.832;13.816;2024-03-02T12:57:16;100679.09;;;20.75;51.07
17254;BME280;32542;52.832;13.816;2024-03-02T13:00:20;100670.25;;;20.74;51.10
17254;BME280;32542;52.832;13.816;2024-03-02T13:03:24;100676.34;;;20.76;50.92
17254;BME280;32542;52.832;13.816;2024-03-02T13:06:27;100670.19;;;20.76;50.90
17254;BME280;32542;52.832;13.816;2024-03-02T13:09:32;100671.91;;;20.77;50.96
17254;BME280;32542;52.832;13.816;2024-03-02T13:12:36;100674.66;;;20.75;50.88
17254;BME280;32542;52.832;13.816;2024-03-02T13:15:39;100669.31;;;20.75;50.85
17254;BME280;32542;52.832;13.816;2024-03-02T13:18:44;100672.84;;;20.76;50.89
17254;BME280;32542;52.832;13.816;2024-03-02T13:21:47;100672.84;;;20.76;50.89
17254;BME280;32542;52.832;13.816;2024-03-02T13:24:53;100667.59;;;20.74;51.00
17254;BME280;32542;52.832;13.816;2024-03-02T13:27:57;100666.75;;;20.74;50.93
17254;BME280;32542;52.832;13.816;2024-03-02T13:31:00;100666.75;;;20.74;50.85
17254;BME280;32542;52.832;13.816;2024-03-02T13:34:03;100672.06;;;20.74;50.95
17254;BME280;32542;52.832;13.816;2024-03-02T13:37:06;100663.22;;;20.73;50.94
17254;BME280;32542;52.832;13.816;2024-03-02T13:40:11;100666.75;;;20.74;50.96
17254;BME280;32542;52.832;13.816;2024-03-02T13:43:18;100660.56;;;20.73;50.98
17254;BME280;32542;52.832;13.816;2024-03-02T13:46:21;100667.59;;;20.74;50.86
17254;BME280;32542;52.832;13.816;2024-03-02T13:49:24;100663.13;;;20.75;50.90
17254;BME280;32542;52.832;13.816;2024-03-02T13:52:30;100656.94;;;20.74;50.81
17254;BME280;32542;52.832;13.816;2024-03-02T13:55:34;100659.59;;;20.74;50.85
17254;BME280;32542;52.832;13.816;2024-03-02T13:58:37;100672.91;;;20.74;50.86
17254;BME280;32542;52.832;13.816;2024-03-02T14:01:40;100661.44;;;20.74;50.92
17254;BME280;32542;52.832;13.816;2024-03-02T14:04:43;100676.53;;;20.73;50.85
17254;BME280;32542;52.832;13.816;2024-03-02T14:07:46;100670.34;;;20.73;50.85
17254;BME280;32542;52.832;13.816;2024-03-02T14:10:50;100676.53;;;20.73;50.79
17254;BME280;32542;52.832;13.816;2024-03-02T14:13:53;100669.47;;;20.72;50.86
17254;BME280;32542;52.832;13.816;2024-03-02T14:16:56;100675.66;;;20.73;50.87
17254;BME280;32542;52.832;13.816;2024-03-02T14:20:02;100674.78;;;20.72;50.90
17254;BME280;32542;52.832;13.816;2024-03-02T14:23:06;100674.78;;;20.72;50.91
17254;BME280;32542;52.832;13.816;2024-03-02T14:26:11;100664.22;;;20.71;50.88
17254;BME280;32542;52.832;13.816;2024-03-02T14:29:13;100666.88;;;20.71;50.83
17254;BME280;32542;52.832;13.816;2024-03-02T14:32:16;100661.56;;;20.71;50.88
17254;BME280;32542;52.832;13.816;2024-03-02T14:35:19;100670.41;;;20.71;50.96
17254;BME280;32542;52.832;13.816;2024-03-02T14:38:24;100665.09;;;20.71;51.12
17254;BME280;32542;52.832;13.816;2024-03-02T14:41:28;100667.75;;;20.71;50.87
17254;BME280;32542;52.832;13.816;2024-03-02T14:44:31;100673.09;;;20.71;50.96
17254;BME280;32542;52.832;13.816;2024-03-02T14:47:35;100677.53;;;20.71;50.88
17254;BME280;32542;52.832;13.816;2024-03-02T14:50:38;100679.31;;;20.70;50.93
17254;BME280;32542;52.832;13.816;2024-03-02T14:53:41;100676.66;;;20.70;50.79
17254;BME280;32542;52.832;13.816;2024-03-02T14:56:45;100689.97;;;20.70;50.85
17254;BME280;32542;52.832;13.816;2024-03-02T14:59:48;100683.72;;;20.71;50.79
17254;BME280;32542;52.832;13.816;2024-03-02T15:02:51;100681.13;;;20.70;50.75
17254;BME280;32542;52.832;13.816;2024-03-02T15:05:54;100680.28;;;20.69;50.86
17254;BME280;32542;52.832;13.816;2024-03-02T15:08:58;100669.63;;;20.69;50.70
17254;BME280;32542;52.832;13.816;2024-03-02T15:12:05;100666.19;;;20.67;50.79
17254;BME280;32542;52.832;13.816;2024-03-02T15:15:11;100675.88;;;20.68;50.96
17254;BME280;32542;52.832;13.816;2024-03-02T15:18:14;100665.31;;;20.67;50.82
17254;BME280;32542;52.832;13.816;2024-03-02T15:21:20;100678.53;;;20.68;50.87
17254;BME280;32542;52.832;13.816;2024-03-02T15:24:24;100680.28;;;20.69;50.86
17254;BME280;32542;52.832;13.816;2024-03-02T15:27:28;100675.00;;;20.68;50.86
17254;BME280;32542;52.832;13.816;2024-03-02T15:30:31;100673.22;;;20.68;50.82
17254;BME280;32542;52.832;13.816;2024-03-02T15:33:34;100682.06;;;20.69;50.77
17254;BME280;32542;52.832;13.816;2024-03-02T15:36:37;100675.97;;;20.67;50.71
17254;BME280;32542;52.832;13.816;2024-03-02T15:39:40;100676.84;;;20.67;50.65
17254;BME280;32542;52.832;13.816;2024-03-02T15:42:48;100679.41;;;20.69;50.72
17254;BME280;32542;52.832;13.816;2024-03-02T15:45:51;100674.97;;;20.69;50.65
17254;BME280;32542;52.832;13.816;2024-03-02T15:48:54;100674.97;;;20.69;50.64
17254;BME280;32542;52.832;13.816;2024-03-02T15:51:59;100674.88;;;20.71;50.65